• Join FlightAware (Why Join?)
  • Login
  • US Flag 
10:19AM EDT


 

Airport Tracker/Info


-or-


 

Live Flight TrackerFlight Track Log ✈ ASQ5344 ✈ 27-Apr-2012 ✈ KTRI - KATL

Flight Track Log - Related Links

Times and Time Zones

All times are in EDT time to prevent confusion due to time zone crossing. See the ASQ5344 flight status page for this flight to view local times or setup timezone preferences in your user account.

Time Position Orientation Groundspeed Altitude Reporting Facility
EDT Latitude Longitude Course Direction KTS MPH feet Rate Location/Type
06:18AM 36.4008 -82.4808 216° Southwest 189 217 5,300  Level Atlanta Center
06:19AM 36.3472 -82.5283 217° Southwest 222 255 7,800 2,340 Climbing Atlanta Center
06:20AM 36.2875 -82.5833 219° Southwest 258 297 10,000 1,860 Climbing Atlanta Center
06:21AM 36.2236 -82.6464 205° Southwest 290 334 11,600 1,500 Climbing Atlanta Center
06:22AM 36.1406 -82.6942 199° South 318 366 13,100 1,260 Climbing Atlanta Center
06:23AM 36.0431 -82.7367 198° South 354 407 14,200 1,020 Climbing Atlanta Center
06:24AM 35.9433 -82.7769 199° South 382 440 15,200 1,140 Climbing Atlanta Center
06:25AM 35.8436 -82.8194 199° South 388 447 16,500 1,260 Climbing Atlanta Center
06:26AM 35.7397 -82.8644 198° South 388 447 17,700 1,020 Climbing Atlanta Center
06:27AM 35.6358 -82.9069 199° South 388 447 18,600 900 Climbing Atlanta Center
06:28AM 35.5297 -82.9517 203° Southwest 394 453 19,600 720 Climbing Atlanta Center
06:29AM 35.4197 -83.0092 208° Southwest 394 453 20,100 480 Climbing Atlanta Center
06:30AM 35.3203 -83.0742 207° Southwest 400 460 20,600 480 Climbing Atlanta Center
06:31AM 35.2164 -83.1389 208° Southwest 411 473 21,100 540 Climbing Atlanta Center
06:32AM 35.1167 -83.2033 207° Southwest 411 473 21,700 420 Climbing Atlanta Center
06:33AM 35.0106 -83.2703 207° Southwest 417 480 22,000 120 Climbing Atlanta Center
06:34AM 34.9047 -83.3372 208° Southwest 423 487 22,000  Level Atlanta Center
06:35AM 34.7944 -83.4089 207° Southwest 434 499 22,000  Level Atlanta Center
06:36AM 34.6883 -83.4756 206° Southwest 434 499 22,000  Level Atlanta Center
06:37AM 34.6072 -83.5239 207° Southwest 400 460 22,000 -240 Level Atlanta Center
06:38AM 34.5092 -83.5850 207° Southwest 385 443 21,600 -1,200 Descending Atlanta Center
06:39AM 34.4178 -83.6408 207° Southwest 385 443 19,600 -2,100 Descending Atlanta Center
06:40AM 34.3197 -83.7017 206° Southwest 375 432 17,500 -2,100 Descending Atlanta Center
06:41AM 34.2344 -83.7522 208° Southwest 362 417 15,400 -2,220 Descending Atlanta Center
06:42AM 34.1489 -83.8078 210° Southwest 357 411 13,200 -1,740 Descending Atlanta Center
06:43AM 34.0697 -83.8633 222° Southwest 338 389 12,000 -900 Descending Atlanta Center
06:44AM 34.0050 -83.9336 221° Southwest 325 374 11,400 -900 Descending Atlanta Center
06:45AM 33.9383 -84.0036 222° Southwest 319 367 10,300 -1,020 Descending Atlanta Center
06:46AM 33.8778 -84.0689 212° Southwest 307 353 9,400 -1,020 Descending Atlanta Center
06:47AM 33.8150 -84.1164 213° Southwest 281 323 8,300 -1,560 Descending Atlanta Center
06:48AM 33.7500 -84.1667 212° Southwest 266 306 6,300 -1,800 Descending Atlanta TRACON
06:49AM 33.6833 -84.2167 239° Southwest 265 305 4,600 -1,380 Descending Atlanta TRACON
06:50AM 33.6500 -84.2833 270° West 210 242 3,600 -1,260 Descending Atlanta TRACON
06:51AM 33.6500 -84.3333 270° West 165 190 2,300 -1,020 Descending Atlanta TRACON
06:52AM 33.6500 -84.3667 270° West 129 148 1,700 -600 Descending Atlanta TRACON